createdAt,value
2018-12-09T00:01:54.969Z,9.10
2018-12-09T00:04:23.401Z,9.10
2018-12-09T00:06:51.839Z,9.00
2018-12-09T00:09:20.308Z,9.00
2018-12-09T00:11:50.296Z,8.90
2018-12-09T00:14:18.561Z,8.90
2018-12-09T00:16:47.106Z,8.80
2018-12-09T00:19:15.600Z,8.90
2018-12-09T00:21:44.174Z,8.90
2018-12-09T00:24:12.682Z,8.90
2018-12-09T00:26:41.117Z,9.10
2018-12-09T00:29:09.445Z,9.10
2018-12-09T00:31:38.893Z,9.10
2018-12-09T00:34:07.267Z,9.20
2018-12-09T00:36:35.549Z,9.10
2018-12-09T00:39:05.963Z,9.00
2018-12-09T00:41:34.176Z,8.80
2018-12-09T00:44:02.655Z,8.70
2018-12-09T00:46:31.081Z,8.70
2018-12-09T00:49:01.505Z,8.60
2018-12-09T00:51:30.113Z,8.60
2018-12-09T00:57:31.209Z,8.50
2018-12-09T00:59:59.544Z,8.40
2018-12-09T01:02:27.898Z,8.30
2018-12-09T01:04:56.412Z,8.30
2018-12-09T01:07:24.701Z,8.30
2018-12-09T01:09:53.204Z,8.10
2018-12-09T01:12:21.532Z,8.10
2018-12-09T01:14:50.133Z,8.10
2018-12-09T01:17:18.473Z,8.10
2018-12-09T01:19:46.909Z,8.10
2018-12-09T01:22:14.185Z,8.10
2018-12-09T01:24:42.161Z,8.10
2018-12-09T01:27:09.392Z,8.10
2018-12-09T01:29:36.716Z,8.10
2018-12-09T01:32:04.039Z,8.20
2018-12-09T01:34:31.269Z,8.20
2018-12-09T01:36:58.615Z,8.20
2018-12-09T01:39:28.520Z,8.30
2018-12-09T01:41:56.877Z,8.40
2018-12-09T01:44:24.225Z,8.50
2018-12-09T01:46:51.832Z,8.50
2018-12-09T01:49:19.072Z,8.60
2018-12-09T01:51:46.285Z,8.50
2018-12-09T01:54:14.814Z,8.60
2018-12-09T01:56:43.708Z,8.50
2018-12-09T01:59:12.165Z,8.50
2018-12-09T02:01:41.092Z,8.60
2018-12-09T02:04:09.441Z,8.50
2018-12-09T02:06:38.211Z,8.60
2018-12-09T02:09:08.663Z,8.60
2018-12-09T02:11:37.117Z,8.60
2018-12-09T02:14:05.641Z,8.60
2018-12-09T02:16:34.533Z,8.60
2018-12-09T02:19:16.202Z,8.60
2018-12-09T02:21:45.171Z,8.70
2018-12-09T02:24:13.625Z,8.60
2018-12-09T02:26:42.193Z,8.60
2018-12-09T02:29:10.806Z,8.60
2018-12-09T02:31:39.318Z,8.60
2018-12-09T02:34:07.886Z,8.50
2018-12-09T02:36:37.061Z,8.50
2018-12-09T02:39:07.409Z,8.50
2018-12-09T02:41:37.348Z,8.50
2018-12-09T02:44:05.896Z,8.50
2018-12-09T02:46:35.132Z,8.50
2018-12-09T02:49:03.742Z,8.50
2018-12-09T02:51:34.988Z,8.50
2018-12-09T02:54:03.710Z,8.60
2018-12-09T02:56:32.365Z,8.70
2018-12-09T02:59:00.936Z,8.60
2018-12-09T03:01:29.308Z,8.70
2018-12-09T03:04:02.786Z,8.70
2018-12-09T03:06:31.631Z,8.80
2018-12-09T03:09:00.066Z,8.90
2018-12-09T03:11:28.545Z,8.90
2018-12-09T03:13:57.002Z,9.00
2018-12-09T03:16:25.580Z,9.00
2018-12-09T03:18:54.947Z,9.00
2018-12-09T03:21:23.422Z,9.00
2018-12-09T03:23:51.805Z,9.00
2018-12-09T03:26:20.794Z,9.00
2018-12-09T03:28:49.124Z,9.00
2018-12-09T03:31:17.466Z,9.10
2018-12-09T03:33:45.778Z,9.00
2018-12-09T03:36:14.113Z,9.00
2018-12-09T03:38:46.755Z,9.10
2018-12-09T03:41:15.674Z,9.10
2018-12-09T03:43:43.979Z,9.00
2018-12-09T03:46:12.461Z,9.10
2018-12-09T03:48:40.905Z,9.00
2018-12-09T03:51:09.344Z,9.10
2018-12-09T03:53:37.786Z,9.10
2018-12-09T03:56:06.151Z,9.10
2018-12-09T03:58:34.504Z,9.10
2018-12-09T04:01:02.929Z,9.20
2018-12-09T04:03:31.561Z,9.20
2018-12-09T04:05:59.918Z,9.20
2018-12-09T04:08:28.355Z,9.20
2018-12-09T04:10:56.927Z,9.20
2018-12-09T04:13:25.405Z,9.10
2018-12-09T04:15:54.157Z,9.10
2018-12-09T04:18:22.834Z,9.00
2018-12-09T04:20:51.199Z,8.90
2018-12-09T04:23:20.104Z,8.80
2018-12-09T04:25:48.677Z,8.80
2018-12-09T04:28:17.158Z,8.90
2018-12-09T04:30:45.816Z,8.90
2018-12-09T04:33:14.398Z,8.80
2018-12-09T04:35:42.844Z,8.90
2018-12-09T04:38:11.188Z,8.90
2018-12-09T04:40:39.520Z,8.80
2018-12-09T04:43:07.961Z,8.80
2018-12-09T04:45:36.456Z,8.80
2018-12-09T04:48:05.022Z,8.80
2018-12-09T04:50:33.764Z,8.90
2018-12-09T04:53:02.154Z,8.90
2018-12-09T04:55:30.519Z,8.80
2018-12-09T04:57:58.958Z,8.70
2018-12-09T05:00:39.081Z,8.60
2018-12-09T05:03:07.424Z,8.50
2018-12-09T05:05:41.616Z,8.50
2018-12-09T05:08:08.861Z,8.50
2018-12-09T05:10:36.153Z,8.50
2018-12-09T05:13:03.509Z,8.40
2018-12-09T05:15:30.768Z,8.40
2018-12-09T05:17:59.135Z,8.40
2018-12-09T05:20:27.689Z,8.40
2018-12-09T05:23:01.848Z,8.40
2018-12-09T05:25:29.337Z,8.30
2018-12-09T05:27:56.582Z,8.30
2018-12-09T05:30:23.816Z,8.30
2018-12-09T05:32:51.140Z,8.30
2018-12-09T05:35:19.846Z,8.30
2018-12-09T05:37:48.168Z,8.40
2018-12-09T05:40:16.733Z,8.40
2018-12-09T05:42:45.265Z,8.40
2018-12-09T05:45:13.706Z,8.40
2018-12-09T05:47:42.456Z,8.30
2018-12-09T05:50:12.152Z,8.30
2018-12-09T05:52:40.496Z,8.40
2018-12-09T05:55:08.919Z,8.30
2018-12-09T05:57:37.476Z,8.20
2018-12-09T06:00:08.468Z,8.20
2018-12-09T06:02:48.304Z,8.20
2018-12-09T06:05:16.597Z,8.20
2018-12-09T06:07:45.053Z,8.20
2018-12-09T06:10:13.550Z,8.20
2018-12-09T06:12:42.041Z,8.20
2018-12-09T06:15:10.629Z,8.20
2018-12-09T06:17:38.992Z,8.20
2018-12-09T06:20:07.957Z,8.20
2018-12-09T06:22:36.308Z,8.20
2018-12-09T06:25:04.749Z,8.20
2018-12-09T06:27:33.376Z,8.20
2018-12-09T06:30:01.729Z,8.30
2018-12-09T06:32:30.561Z,8.30
2018-12-09T06:34:58.992Z,8.30
2018-12-09T06:37:27.430Z,8.20
2018-12-09T06:39:56.668Z,8.20
2018-12-09T06:42:25.096Z,8.20
2018-12-09T06:44:53.410Z,8.20
2018-12-09T06:47:22.279Z,8.20
2018-12-09T06:49:50.565Z,8.30
2018-12-09T06:52:18.864Z,8.20
2018-12-09T06:54:48.582Z,8.20
2018-12-09T06:57:17.155Z,8.30
2018-12-09T06:59:46.351Z,8.30
2018-12-09T07:02:14.695Z,8.30
2018-12-09T07:04:43.115Z,8.20
2018-12-09T07:07:11.659Z,8.20
2018-12-09T07:09:40.281Z,8.20
2018-12-09T07:12:08.880Z,8.20
2018-12-09T07:14:37.367Z,8.20
2018-12-09T07:17:08.314Z,8.20
2018-12-09T07:19:35.620Z,8.20
2018-12-09T07:22:03.987Z,8.20
2018-12-09T07:24:33.987Z,8.20
2018-12-09T07:27:02.907Z,8.20
2018-12-09T07:29:31.464Z,8.20
2018-12-09T07:32:05.741Z,8.20
2018-12-09T07:34:33.073Z,8.30
2018-12-09T07:37:02.703Z,8.30
2018-12-09T07:39:30.164Z,8.30
2018-12-09T07:41:57.675Z,8.40
2018-12-09T07:44:25.322Z,8.40
2018-12-09T07:46:52.901Z,8.40
2018-12-09T07:49:20.109Z,8.40
2018-12-09T07:51:48.667Z,8.30
2018-12-09T07:54:17.443Z,8.30
2018-12-09T07:56:45.756Z,8.40
2018-12-09T07:59:13.991Z,8.40
2018-12-09T08:01:42.537Z,8.40
2018-12-09T08:04:10.853Z,8.40
2018-12-09T08:06:42.221Z,8.40
2018-12-09T08:09:10.601Z,8.50
2018-12-09T08:11:39.072Z,8.40
2018-12-09T08:14:08.082Z,8.50
2018-12-09T08:16:37.259Z,8.40
2018-12-09T08:19:05.524Z,8.50
2018-12-09T08:21:34.512Z,8.60
2018-12-09T08:24:03.112Z,8.50
2018-12-09T08:26:31.488Z,8.50
2018-12-09T08:28:59.923Z,8.40
2018-12-09T08:31:28.256Z,8.50
2018-12-09T08:33:57.921Z,8.40
2018-12-09T08:36:26.256Z,8.40
2018-12-09T08:38:54.704Z,8.40
2018-12-09T08:41:23.073Z,8.50
2018-12-09T08:43:51.404Z,8.60
2018-12-09T08:46:19.737Z,8.50
2018-12-09T08:48:48.132Z,8.50
2018-12-09T08:51:16.464Z,8.50
2018-12-09T08:53:44.902Z,8.50
2018-12-09T08:56:13.199Z,8.50
2018-12-09T08:58:41.620Z,8.50
2018-12-09T09:01:10.130Z,8.50
2018-12-09T09:03:38.660Z,8.50
2018-12-09T09:06:07.207Z,8.50
2018-12-09T09:08:35.627Z,8.40
2018-12-09T09:11:04.397Z,8.50
2018-12-09T09:13:32.668Z,8.50
2018-12-09T09:16:01.048Z,8.50
2018-12-09T09:18:29.401Z,8.50
2018-12-09T09:20:57.864Z,8.50
2018-12-09T09:23:26.225Z,8.10
2018-12-09T09:25:54.542Z,7.40
2018-12-09T09:28:22.853Z,7.00
2018-12-09T09:30:51.341Z,6.80
2018-12-09T09:33:19.656Z,6.70
2018-12-09T09:35:47.991Z,6.70
2018-12-09T09:38:16.324Z,6.70
2018-12-09T09:40:44.776Z,6.70
2018-12-09T09:43:13.260Z,6.70
2018-12-09T09:45:41.614Z,6.70
2018-12-09T09:48:09.940Z,6.70
2018-12-09T09:50:39.336Z,6.70
2018-12-09T09:53:07.800Z,6.70
2018-12-09T09:55:36.199Z,6.80
2018-12-09T09:58:04.556Z,6.80
2018-12-09T10:00:32.888Z,6.90
2018-12-09T10:03:01.129Z,7.00
2018-12-09T10:05:29.685Z,7.00
2018-12-09T10:07:58.693Z,7.10
2018-12-09T10:10:27.131Z,7.10
2018-12-09T10:12:56.310Z,7.20
2018-12-09T10:15:26.288Z,7.20
2018-12-09T10:17:54.623Z,7.20
2018-12-09T10:20:22.859Z,7.30
2018-12-09T10:22:51.312Z,7.40
2018-12-09T10:25:19.633Z,7.40
2018-12-09T10:27:50.781Z,7.40
2018-12-09T10:30:19.212Z,7.40
2018-12-09T10:32:47.562Z,7.50
2018-12-09T10:35:15.945Z,7.50
2018-12-09T10:37:44.269Z,7.50
2018-12-09T10:40:12.529Z,7.60
2018-12-09T10:42:40.916Z,7.50
2018-12-09T10:45:09.507Z,7.40
2018-12-09T10:47:37.823Z,7.40
2018-12-09T10:50:07.157Z,7.50
2018-12-09T10:52:35.655Z,7.40
2018-12-09T10:55:04.120Z,7.40
2018-12-09T10:57:32.479Z,7.40
2018-12-09T11:00:00.792Z,7.40
2018-12-09T11:02:29.232Z,7.40
2018-12-09T11:04:57.988Z,7.40
2018-12-09T11:07:26.312Z,7.40
2018-12-09T11:09:54.659Z,7.40
2018-12-09T11:12:23.007Z,7.40
2018-12-09T11:14:51.429Z,7.40
2018-12-09T11:17:19.995Z,7.40
2018-12-09T11:19:48.691Z,7.40
2018-12-09T11:22:16.927Z,7.40
2018-12-09T11:24:46.996Z,7.40
2018-12-09T11:27:15.436Z,7.40
2018-12-09T11:29:43.743Z,7.50
2018-12-09T11:32:12.069Z,7.40
2018-12-09T11:34:40.491Z,7.40
2018-12-09T11:37:09.052Z,7.40
2018-12-09T11:39:37.459Z,7.40
2018-12-09T11:42:05.911Z,7.40
2018-12-09T11:44:35.339Z,7.50
2018-12-09T11:47:03.797Z,7.50
2018-12-09T11:49:32.323Z,7.60
2018-12-09T11:52:00.588Z,7.60
2018-12-09T11:54:29.048Z,7.60
2018-12-09T11:56:57.727Z,7.60
2018-12-09T11:59:26.711Z,7.70
2018-12-09T12:01:55.344Z,7.70
2018-12-09T12:04:23.527Z,7.70
2018-12-09T12:06:51.715Z,7.80
2018-12-09T12:09:20.019Z,7.80
2018-12-09T12:11:48.261Z,7.90
2018-12-09T12:14:16.622Z,8.00
2018-12-09T12:16:48.350Z,8.10
2018-12-09T12:21:51.024Z,8.10
2018-12-09T12:24:18.287Z,8.20
2018-12-09T12:26:45.486Z,8.10
2018-12-09T12:29:12.672Z,8.20
2018-12-09T12:31:40.284Z,8.20
2018-12-09T12:34:08.580Z,8.20
2018-12-09T12:36:36.846Z,8.20
2018-12-09T12:39:06.285Z,8.20
2018-12-09T12:41:34.756Z,8.20
2018-12-09T12:44:03.506Z,8.10
2018-12-09T12:46:32.142Z,8.20
2018-12-09T12:49:01.441Z,8.30
2018-12-09T12:51:29.852Z,8.30
2018-12-09T12:53:58.412Z,8.30
2018-12-09T12:56:26.765Z,8.30
2018-12-09T12:58:55.076Z,8.20
2018-12-09T13:01:23.807Z,8.20
2018-12-09T13:03:52.164Z,8.30
2018-12-09T13:06:21.092Z,8.40
2018-12-09T13:08:49.455Z,8.40
2018-12-09T13:11:17.899Z,8.40
2018-12-09T13:13:46.372Z,8.40
2018-12-09T13:16:14.633Z,8.40
2018-12-09T13:18:42.972Z,8.40
2018-12-09T13:21:11.582Z,8.40
2018-12-09T13:23:39.822Z,8.40
2018-12-09T13:26:09.336Z,8.30
2018-12-09T13:28:37.921Z,8.30
2018-12-09T13:31:06.324Z,8.40
2018-12-09T13:33:34.652Z,8.50
2018-12-09T13:36:03.495Z,8.60
2018-12-09T13:38:36.452Z,8.70
2018-12-09T13:41:04.797Z,8.70
2018-12-09T13:43:33.313Z,8.70
2018-12-09T13:46:01.701Z,8.70
2018-12-09T13:48:30.180Z,8.70
2018-12-09T13:50:58.488Z,8.70
2018-12-09T13:53:26.930Z,8.80
2018-12-09T13:55:55.461Z,8.80
2018-12-09T13:58:24.041Z,8.70
2018-12-09T14:00:52.514Z,8.80
2018-12-09T14:03:21.055Z,8.80
2018-12-09T14:05:49.368Z,8.80
2018-12-09T14:08:18.476Z,8.80
2018-12-09T14:10:46.981Z,8.80
2018-12-09T14:13:15.501Z,8.90
2018-12-09T14:15:49.530Z,8.90
2018-12-09T14:18:16.759Z,8.90
2018-12-09T14:20:46.714Z,8.90
2018-12-09T14:23:13.924Z,8.90
2018-12-09T14:25:41.164Z,9.00
2018-12-09T14:28:09.532Z,8.90
2018-12-09T14:30:37.760Z,8.80
2018-12-09T14:33:06.288Z,8.90
2018-12-09T14:35:34.666Z,8.90
2018-12-09T14:38:03.179Z,8.80
2018-12-09T14:40:34.881Z,8.90
2018-12-09T14:43:03.392Z,8.90
2018-12-09T14:45:31.714Z,8.90
2018-12-09T14:48:00.092Z,8.80
2018-12-09T14:50:28.452Z,8.90
2018-12-09T14:52:57.491Z,8.90
2018-12-09T14:55:33.060Z,8.80
2018-12-09T14:58:00.268Z,8.90
2018-12-09T15:00:27.497Z,8.90
2018-12-09T15:02:54.819Z,8.90
2018-12-09T15:05:22.032Z,9.00
2018-12-09T15:07:49.248Z,8.80
2018-12-09T15:10:16.800Z,8.90
2018-12-09T15:12:45.528Z,8.90
2018-12-09T15:15:13.889Z,8.80
2018-12-09T15:17:42.208Z,8.80
2018-12-09T15:20:10.634Z,8.80
2018-12-09T15:22:39.075Z,8.70
2018-12-09T15:25:08.785Z,8.80
2018-12-09T15:27:37.330Z,8.80
2018-12-09T15:30:07.079Z,8.80
2018-12-09T15:32:37.664Z,8.80
2018-12-09T15:35:07.288Z,8.80
2018-12-09T15:37:35.741Z,8.80
2018-12-09T15:40:04.261Z,8.80
2018-12-09T15:42:32.520Z,8.80
2018-12-09T15:45:00.823Z,8.80
2018-12-09T15:47:29.431Z,8.90
2018-12-09T15:49:57.888Z,8.90
2018-12-09T15:52:26.277Z,8.80
2018-12-09T15:54:54.641Z,8.80
2018-12-09T15:57:23.128Z,8.70
2018-12-09T15:59:53.487Z,8.60
2018-12-09T16:02:21.911Z,8.60
2018-12-09T16:04:50.270Z,8.50
2018-12-09T16:07:18.773Z,8.40
2018-12-09T16:09:47.311Z,8.30
2018-12-09T16:12:17.402Z,8.20
2018-12-09T16:14:45.837Z,8.20
2018-12-09T16:17:14.475Z,8.10
2018-12-09T16:19:42.797Z,8.20
2018-12-09T16:22:11.011Z,8.20
2018-12-09T16:24:39.653Z,8.10
2018-12-09T16:27:07.965Z,8.20
2018-12-09T16:29:39.557Z,8.20
2018-12-09T16:32:07.872Z,8.20
2018-12-09T16:34:37.367Z,8.30
2018-12-09T16:37:06.014Z,8.30
2018-12-09T16:39:34.449Z,8.30
2018-12-09T16:42:03.107Z,8.30
2018-12-09T16:47:32.481Z,8.20
2018-12-09T16:51:03.000Z,8.20
2018-12-09T16:53:31.319Z,8.20
2018-12-09T16:55:59.921Z,8.10
2018-12-09T16:58:32.356Z,8.10
2018-12-09T17:01:00.758Z,8.10
2018-12-09T17:03:29.058Z,8.20
2018-12-09T17:05:57.960Z,8.20
2018-12-09T17:08:26.430Z,8.20
2018-12-09T17:10:54.797Z,8.10
2018-12-09T17:13:23.173Z,8.10
2018-12-09T17:15:51.984Z,8.10
2018-12-09T17:18:20.244Z,8.10
2018-12-09T17:20:48.572Z,7.90
2018-12-09T17:23:20.799Z,8.00
2018-12-09T17:25:49.156Z,7.90
2018-12-09T17:28:17.432Z,7.80
2018-12-09T17:30:45.872Z,7.80
2018-12-09T17:33:14.187Z,7.80
2018-12-09T17:35:43.629Z,7.80
2018-12-09T17:38:13.750Z,7.80
2018-12-09T17:40:41.996Z,7.90
2018-12-09T17:43:10.326Z,7.80
2018-12-09T17:45:38.583Z,8.00
2018-12-09T17:48:11.396Z,8.10
2018-12-09T17:50:44.120Z,8.10
2018-12-09T17:53:13.136Z,8.10
2018-12-09T17:55:41.492Z,8.10
2018-12-09T17:58:09.815Z,8.10
2018-12-09T18:00:38.501Z,8.20
2018-12-09T18:03:07.049Z,8.10
2018-12-09T18:05:42.295Z,8.10
2018-12-09T18:08:10.623Z,8.10
2018-12-09T18:10:39.265Z,8.00
2018-12-09T18:13:07.632Z,8.00
2018-12-09T18:15:36.061Z,7.90
2018-12-09T18:18:04.469Z,7.90
2018-12-09T18:20:33.512Z,7.90
2018-12-09T18:23:01.952Z,7.90
2018-12-09T18:25:30.319Z,7.90
2018-12-09T18:28:00.753Z,7.90
2018-12-09T18:30:29.905Z,7.80
2018-12-09T18:32:58.684Z,7.90
2018-12-09T18:35:27.868Z,7.90
2018-12-09T18:37:56.862Z,7.80
2018-12-09T18:40:25.296Z,7.80
2018-12-09T18:42:53.734Z,7.80
2018-12-09T18:45:23.728Z,7.80
2018-12-09T18:47:52.209Z,7.70
2018-12-09T18:50:20.665Z,7.60
2018-12-09T18:52:49.102Z,7.70
2018-12-09T18:55:18.755Z,7.70
2018-12-09T18:57:47.380Z,7.60
2018-12-09T19:00:15.849Z,7.70
2018-12-09T19:02:44.359Z,7.70
2018-12-09T19:05:12.880Z,7.60
2018-12-09T19:07:41.814Z,7.60
2018-12-09T19:10:10.157Z,7.50
2018-12-09T19:12:38.796Z,7.50
2018-12-09T19:15:07.514Z,7.50
2018-12-09T19:17:35.971Z,7.40
2018-12-09T19:20:04.394Z,7.30
2018-12-09T19:22:32.712Z,7.30
2018-12-09T19:25:00.976Z,7.30
2018-12-09T19:27:29.164Z,7.20
2018-12-09T19:29:58.014Z,7.20
2018-12-09T19:32:26.355Z,7.30
2018-12-09T19:34:54.741Z,7.10
2018-12-09T19:37:22.971Z,7.10
2018-12-09T19:39:51.263Z,7.10
2018-12-09T19:42:19.583Z,7.20
2018-12-09T19:44:49.782Z,7.30
2018-12-09T19:47:18.076Z,7.30
2018-12-09T19:49:46.379Z,7.20
2018-12-09T19:52:14.654Z,7.30
2018-12-09T19:54:42.970Z,7.30
2018-12-09T19:57:11.428Z,7.30
2018-12-09T19:59:45.691Z,7.30
2018-12-09T20:02:13.111Z,7.20
2018-12-09T20:04:40.283Z,7.10
2018-12-09T20:07:07.453Z,7.00
2018-12-09T20:09:34.639Z,7.10
2018-12-09T20:12:03.066Z,7.00
2018-12-09T20:14:31.359Z,7.10
2018-12-09T20:16:59.900Z,7.00
2018-12-09T20:19:28.243Z,6.90
2018-12-09T20:21:56.655Z,6.90
2018-12-09T20:24:24.844Z,6.80
2018-12-09T20:26:53.192Z,6.80
2018-12-09T20:29:21.463Z,6.80
2018-12-09T20:31:49.764Z,6.80
2018-12-09T20:34:18.656Z,6.80
2018-12-09T20:36:46.832Z,6.90
2018-12-09T20:39:15.146Z,6.80
2018-12-09T20:41:43.479Z,6.80
2018-12-09T20:44:11.800Z,6.80
2018-12-09T20:46:40.466Z,6.70
2018-12-09T20:49:08.825Z,6.80
2018-12-09T20:51:37.139Z,6.80
2018-12-09T20:54:05.358Z,6.80
2018-12-09T20:56:35.263Z,6.70
2018-12-09T20:59:03.623Z,6.70
2018-12-09T21:01:31.964Z,6.70
2018-12-09T21:04:00.271Z,6.70
2018-12-09T21:06:28.664Z,6.70
2018-12-09T21:08:57.395Z,6.60
2018-12-09T21:11:25.627Z,6.70
2018-12-09T21:13:54.073Z,6.60
2018-12-09T21:16:22.677Z,6.50
2018-12-09T21:18:50.949Z,6.40
2018-12-09T21:21:19.392Z,6.40
2018-12-09T21:23:48.062Z,6.40
2018-12-09T21:26:17.392Z,6.40
2018-12-09T21:28:45.861Z,6.50
2018-12-09T21:31:14.179Z,6.50
2018-12-09T21:33:42.917Z,6.50
2018-12-09T21:36:11.269Z,6.70
2018-12-09T21:38:39.692Z,6.60
2018-12-09T21:41:08.027Z,6.60
2018-12-09T21:46:08.593Z,6.50
2018-12-09T21:48:35.824Z,6.60
2018-12-09T21:51:03.201Z,6.60
2018-12-09T21:53:32.252Z,6.70
2018-12-09T21:56:00.614Z,6.70
2018-12-09T21:58:28.969Z,6.60
2018-12-09T22:00:57.452Z,6.60
2018-12-09T22:03:25.798Z,6.60
2018-12-09T22:05:54.246Z,6.70
2018-12-09T22:08:21.463Z,6.70
2018-12-09T22:10:49.793Z,6.70
2018-12-09T22:13:18.357Z,6.70
2018-12-09T22:15:47.637Z,6.70
2018-12-09T22:18:16.089Z,6.70
2018-12-09T22:20:44.436Z,6.60
2018-12-09T22:23:13.370Z,6.60
2018-12-09T22:25:41.920Z,6.60
2018-12-09T22:28:10.251Z,6.60
2018-12-09T22:30:38.612Z,6.60
2018-12-09T22:33:06.925Z,6.70
2018-12-09T22:35:35.377Z,6.70
2018-12-09T22:38:03.766Z,6.60
2018-12-09T22:40:32.038Z,6.60
2018-12-09T22:43:00.413Z,6.60
2018-12-09T22:45:28.844Z,6.60
2018-12-09T22:47:57.392Z,6.60
2018-12-09T22:50:25.744Z,6.70
2018-12-09T22:52:54.179Z,6.70
2018-12-09T22:55:22.509Z,6.70
2018-12-09T22:57:51.060Z,6.70
2018-12-09T23:00:27.398Z,6.60
2018-12-09T23:03:00.525Z,6.70
2018-12-09T23:05:29.017Z,6.70
2018-12-09T23:07:57.465Z,6.70
2018-12-09T23:10:25.867Z,6.70
2018-12-09T23:12:54.336Z,6.80
2018-12-09T23:15:22.804Z,6.80
2018-12-09T23:17:51.188Z,6.70
2018-12-09T23:20:20.150Z,6.70
2018-12-09T23:22:48.492Z,6.60
2018-12-09T23:25:17.508Z,6.60
2018-12-09T23:27:45.850Z,6.50
2018-12-09T23:30:14.198Z,6.50
2018-12-09T23:32:42.569Z,6.50
2018-12-09T23:35:11.176Z,6.60
2018-12-09T23:37:39.687Z,6.60
2018-12-09T23:40:08.372Z,6.60
2018-12-09T23:42:36.925Z,6.60
2018-12-09T23:45:05.460Z,6.60
2018-12-09T23:47:34.076Z,6.60
2018-12-09T23:50:02.648Z,6.60
2018-12-09T23:52:30.936Z,6.60
2018-12-09T23:54:59.286Z,6.60
2018-12-09T23:57:27.919Z,6.60
2018-12-09T23:59:59.024Z,6.50
